SECU/CUE METAR and TAF weather

Enter ICAO airport designator
Station Type Date Time Source
SECU METAR 2019/10/20 19:00 UTC NOAA

SECU 201900Z 27002KT 9999 -RA OVC040 15/13 Q1026


Station Type Date Time Source
SECU Decoded METAR 2019/10/20 19:00 UTC NOAA

Cuenca / Mariscal Lamar, Ecuador (SECU) 02-53S 078-59W 2531M
Oct 20, 2019 - 03:00 PM EDT / 2019.10.20 1900 UTC
Wind: from the W (270 degrees) at 2 MPH (2 KT):0
Visibility: greater than 7 mile(s):0
Sky conditions: overcast
Weather: light rain
Temperature: 59 F (15 C)
Dew Point: 55 F (13 C)
Relative Humidity: 87%
Pressure (altimeter): 30.30 in. Hg (1026 hPa)
ob: SECU 201900Z 27002KT 9999 -RA OVC040 15/13 Q1026
cycle: 19

Station Type Date Time Source
SECU TAF 2019/04/02 18:03 UTC NOAA

TAF SECU 021640Z 0218/0318 16008KT 9999 SCT033 SCT100
TEMPO 0221/0224 SHRA BKN030TCU BKN100
FM030000 05004KT 9999 RA BKN033 OVC100
FM030500 VRB03KT 9999 FEW008 BKN030 BKN100
FM031500 16005KT 9999 SCT030 SCT100 TX21/0219Z TN12/0310Z

Example: see airport list